sensor_id;sensor_type;location;lat;lon;timestamp;P1;durP1;ratioP1;P2;durP2;ratioP2
76131;SDS011;64877;50.994;13.650;2023-10-13T00:01:50;7.82;;;4.25;;
76131;SDS011;64877;50.994;13.650;2023-10-13T00:04:18;9.88;;;3.83;;
76131;SDS011;64877;50.994;13.650;2023-10-13T00:06:48;14.13;;;3.92;;
76131;SDS011;64877;50.994;13.650;2023-10-13T00:09:13;8.93;;;4.20;;
76131;SDS011;64877;50.994;13.650;2023-10-13T00:11:42;5.55;;;3.58;;
76131;SDS011;64877;50.994;13.650;2023-10-13T00:14:12;8.60;;;3.38;;
76131;SDS011;64877;50.994;13.650;2023-10-13T00:16:42;7.43;;;4.22;;
76131;SDS011;64877;50.994;13.650;2023-10-13T00:19:08;7.47;;;3.80;;
76131;SDS011;64877;50.994;13.650;2023-10-13T00:21:38;7.65;;;3.88;;
76131;SDS011;64877;50.994;13.650;2023-10-13T00:24:04;7.97;;;3.90;;
76131;SDS011;64877;50.994;13.650;2023-10-13T00:26:37;7.40;;;3.67;;
76131;SDS011;64877;50.994;13.650;2023-10-13T00:29:03;6.75;;;3.30;;
76131;SDS011;64877;50.994;13.650;2023-10-13T00:31:32;7.18;;;3.50;;
76131;SDS011;64877;50.994;13.650;2023-10-13T00:34:01;7.68;;;4.07;;
76131;SDS011;64877;50.994;13.650;2023-10-13T00:36:36;7.22;;;4.05;;
76131;SDS011;64877;50.994;13.650;2023-10-13T00:39:02;7.53;;;3.45;;
76131;SDS011;64877;50.994;13.650;2023-10-13T00:41:31;6.63;;;3.42;;
76131;SDS011;64877;50.994;13.650;2023-10-13T00:44:16;7.07;;;3.63;;
76131;SDS011;64877;50.994;13.650;2023-10-13T00:46:41;6.88;;;3.22;;
76131;SDS011;64877;50.994;13.650;2023-10-13T00:49:10;8.65;;;3.45;;
76131;SDS011;64877;50.994;13.650;2023-10-13T00:51:41;6.43;;;3.58;;
76131;SDS011;64877;50.994;13.650;2023-10-13T00:54:12;10.98;;;3.63;;
76131;SDS011;64877;50.994;13.650;2023-10-13T00:56:39;6.75;;;3.33;;
76131;SDS011;64877;50.994;13.650;2023-10-13T00:59:11;7.68;;;3.20;;
76131;SDS011;64877;50.994;13.650;2023-10-13T01:01:38;5.28;;;3.33;;
76131;SDS011;64877;50.994;13.650;2023-10-13T01:04:07;7.07;;;3.40;;
76131;SDS011;64877;50.994;13.650;2023-10-13T01:06:37;7.05;;;3.25;;
76131;SDS011;64877;50.994;13.650;2023-10-13T01:09:07;6.85;;;3.47;;
76131;SDS011;64877;50.994;13.650;2023-10-13T01:11:46;6.20;;;3.35;;
76131;SDS011;64877;50.994;13.650;2023-10-13T01:14:17;6.38;;;3.13;;
76131;SDS011;64877;50.994;13.650;2023-10-13T01:16:45;6.55;;;3.05;;
76131;SDS011;64877;50.994;13.650;2023-10-13T01:19:15;6.22;;;3.40;;
76131;SDS011;64877;50.994;13.650;2023-10-13T01:22:04;6.70;;;3.13;;
76131;SDS011;64877;50.994;13.650;2023-10-13T01:24:31;6.45;;;3.20;;
76131;SDS011;64877;50.994;13.650;2023-10-13T01:27:07;5.53;;;3.15;;
76131;SDS011;64877;50.994;13.650;2023-10-13T01:29:42;6.50;;;3.30;;
76131;SDS011;64877;50.994;13.650;2023-10-13T01:32:23;6.57;;;3.75;;
76131;SDS011;64877;50.994;13.650;2023-10-13T01:34:49;7.85;;;3.80;;
76131;SDS011;64877;50.994;13.650;2023-10-13T01:37:21;10.13;;;3.83;;
76131;SDS011;64877;50.994;13.650;2023-10-13T01:39:47;6.18;;;3.10;;
76131;SDS011;64877;50.994;13.650;2023-10-13T01:42:15;6.70;;;3.67;;
76131;SDS011;64877;50.994;13.650;2023-10-13T01:44:47;6.53;;;3.17;;
76131;SDS011;64877;50.994;13.650;2023-10-13T01:47:13;6.00;;;3.22;;
76131;SDS011;64877;50.994;13.650;2023-10-13T01:49:41;5.75;;;3.03;;
76131;SDS011;64877;50.994;13.650;2023-10-13T01:52:11;6.63;;;3.17;;
76131;SDS011;64877;50.994;13.650;2023-10-13T01:54:37;8.80;;;3.33;;
76131;SDS011;64877;50.994;13.650;2023-10-13T01:57:09;6.93;;;3.60;;
76131;SDS011;64877;50.994;13.650;2023-10-13T01:59:43;8.13;;;3.90;;
76131;SDS011;64877;50.994;13.650;2023-10-13T02:02:13;8.93;;;3.83;;
76131;SDS011;64877;50.994;13.650;2023-10-13T02:04:39;6.35;;;3.42;;
76131;SDS011;64877;50.994;13.650;2023-10-13T02:07:15;5.80;;;3.53;;
76131;SDS011;64877;50.994;13.650;2023-10-13T02:09:41;4.38;;;3.03;;
76131;SDS011;64877;50.994;13.650;2023-10-13T02:12:08;8.60;;;3.88;;
76131;SDS011;64877;50.994;13.650;2023-10-13T02:14:36;6.60;;;3.13;;
76131;SDS011;64877;50.994;13.650;2023-10-13T02:17:03;5.85;;;3.47;;
76131;SDS011;64877;50.994;13.650;2023-10-13T02:19:38;5.90;;;3.13;;
76131;SDS011;64877;50.994;13.650;2023-10-13T02:22:08;6.28;;;3.42;;
76131;SDS011;64877;50.994;13.650;2023-10-13T02:24:35;8.30;;;3.72;;
76131;SDS011;64877;50.994;13.650;2023-10-13T02:27:07;7.63;;;3.55;;
76131;SDS011;64877;50.994;13.650;2023-10-13T02:29:42;7.45;;;3.45;;
76131;SDS011;64877;50.994;13.650;2023-10-13T02:32:11;6.32;;;3.53;;
76131;SDS011;64877;50.994;13.650;2023-10-13T02:34:46;8.82;;;3.15;;
76131;SDS011;64877;50.994;13.650;2023-10-13T02:37:11;9.35;;;3.75;;
76131;SDS011;64877;50.994;13.650;2023-10-13T02:39:39;5.63;;;3.22;;
76131;SDS011;64877;50.994;13.650;2023-10-13T02:42:08;6.07;;;2.72;;
76131;SDS011;64877;50.994;13.650;2023-10-13T02:44:41;7.63;;;3.08;;
76131;SDS011;64877;50.994;13.650;2023-10-13T02:47:11;5.53;;;2.88;;
76131;SDS011;64877;50.994;13.650;2023-10-13T02:49:40;4.00;;;2.42;;
76131;SDS011;64877;50.994;13.650;2023-10-13T02:52:09;9.27;;;3.70;;
76131;SDS011;64877;50.994;13.650;2023-10-13T02:54:37;5.55;;;2.88;;
76131;SDS011;64877;50.994;13.650;2023-10-13T02:57:15;5.53;;;3.13;;
76131;SDS011;64877;50.994;13.650;2023-10-13T02:59:41;4.45;;;2.67;;
76131;SDS011;64877;50.994;13.650;2023-10-13T03:02:13;4.22;;;2.58;;
76131;SDS011;64877;50.994;13.650;2023-10-13T03:04:54;5.70;;;2.92;;
76131;SDS011;64877;50.994;13.650;2023-10-13T03:07:28;6.38;;;3.28;;
76131;SDS011;64877;50.994;13.650;2023-10-13T03:09:57;6.20;;;3.42;;
76131;SDS011;64877;50.994;13.650;2023-10-13T03:12:25;6.18;;;3.08;;
76131;SDS011;64877;50.994;13.650;2023-10-13T03:14:51;6.10;;;3.17;;
76131;SDS011;64877;50.994;13.650;2023-10-13T03:17:21;7.05;;;3.28;;
76131;SDS011;64877;50.994;13.650;2023-10-13T03:19:58;7.68;;;3.17;;
76131;SDS011;64877;50.994;13.650;2023-10-13T03:22:25;4.93;;;2.85;;
76131;SDS011;64877;50.994;13.650;2023-10-13T03:24:57;5.63;;;2.97;;
76131;SDS011;64877;50.994;13.650;2023-10-13T03:27:34;5.45;;;2.83;;
76131;SDS011;64877;50.994;13.650;2023-10-13T03:30:26;7.57;;;3.15;;
76131;SDS011;64877;50.994;13.650;2023-10-13T03:33:04;7.55;;;3.30;;
76131;SDS011;64877;50.994;13.650;2023-10-13T03:35:39;5.82;;;3.10;;
76131;SDS011;64877;50.994;13.650;2023-10-13T03:38:07;4.80;;;2.75;;
76131;SDS011;64877;50.994;13.650;2023-10-13T03:40:45;4.43;;;2.53;;
76131;SDS011;64877;50.994;13.650;2023-10-13T03:43:21;3.88;;;2.80;;
76131;SDS011;64877;50.994;13.650;2023-10-13T03:45:48;5.68;;;3.20;;
76131;SDS011;64877;50.994;13.650;2023-10-13T03:48:18;5.65;;;2.83;;
76131;SDS011;64877;50.994;13.650;2023-10-13T03:50:50;6.97;;;2.83;;
76131;SDS011;64877;50.994;13.650;2023-10-13T03:53:35;8.50;;;3.30;;
76131;SDS011;64877;50.994;13.650;2023-10-13T03:56:05;6.95;;;3.67;;
76131;SDS011;64877;50.994;13.650;2023-10-13T03:58:37;4.78;;;3.00;;
76131;SDS011;64877;50.994;13.650;2023-10-13T04:01:13;5.53;;;2.90;;
76131;SDS011;64877;50.994;13.650;2023-10-13T04:03:42;5.15;;;2.50;;
76131;SDS011;64877;50.994;13.650;2023-10-13T04:06:25;5.25;;;3.10;;
76131;SDS011;64877;50.994;13.650;2023-10-13T04:09:10;5.25;;;2.70;;
76131;SDS011;64877;50.994;13.650;2023-10-13T04:11:48;8.07;;;3.15;;
76131;SDS011;64877;50.994;13.650;2023-10-13T04:17:18;8.48;;;2.95;;
76131;SDS011;64877;50.994;13.650;2023-10-13T04:19:54;10.27;;;3.30;;
76131;SDS011;64877;50.994;13.650;2023-10-13T04:22:31;7.38;;;3.42;;
76131;SDS011;64877;50.994;13.650;2023-10-13T04:25:19;6.18;;;3.00;;
76131;SDS011;64877;50.994;13.650;2023-10-13T04:28:01;7.60;;;2.72;;
76131;SDS011;64877;50.994;13.650;2023-10-13T04:33:18;6.88;;;3.55;;
76131;SDS011;64877;50.994;13.650;2023-10-13T04:38:39;6.15;;;2.80;;
76131;SDS011;64877;50.994;13.650;2023-10-13T04:41:30;6.40;;;3.03;;
76131;SDS011;64877;50.994;13.650;2023-10-13T04:47:08;5.80;;;2.88;;
76131;SDS011;64877;50.994;13.650;2023-10-13T04:49:43;4.35;;;2.50;;
76131;SDS011;64877;50.994;13.650;2023-10-13T04:52:12;5.97;;;2.45;;
76131;SDS011;64877;50.994;13.650;2023-10-13T04:54:43;4.15;;;2.13;;
76131;SDS011;64877;50.994;13.650;2023-10-13T04:57:12;4.70;;;2.05;;
76131;SDS011;64877;50.994;13.650;2023-10-13T04:59:45;5.38;;;2.15;;
76131;SDS011;64877;50.994;13.650;2023-10-13T05:02:32;6.53;;;2.25;;
76131;SDS011;64877;50.994;13.650;2023-10-13T05:05:04;6.38;;;2.60;;
76131;SDS011;64877;50.994;13.650;2023-10-13T05:07:39;5.53;;;2.75;;
76131;SDS011;64877;50.994;13.650;2023-10-13T05:10:24;5.78;;;2.80;;
76131;SDS011;64877;50.994;13.650;2023-10-13T05:13:09;5.47;;;2.88;;
76131;SDS011;64877;50.994;13.650;2023-10-13T05:15:53;7.75;;;3.10;;
76131;SDS011;64877;50.994;13.650;2023-10-13T05:18:37;5.47;;;2.90;;
76131;SDS011;64877;50.994;13.650;2023-10-13T05:21:21;4.80;;;2.30;;
76131;SDS011;64877;50.994;13.650;2023-10-13T05:24:06;6.90;;;2.90;;
76131;SDS011;64877;50.994;13.650;2023-10-13T05:26:51;5.18;;;2.70;;
76131;SDS011;64877;50.994;13.650;2023-10-13T05:29:42;4.80;;;2.65;;
76131;SDS011;64877;50.994;13.650;2023-10-13T05:32:28;5.28;;;2.75;;
76131;SDS011;64877;50.994;13.650;2023-10-13T05:35:13;5.90;;;3.10;;
76131;SDS011;64877;50.994;13.650;2023-10-13T05:37:58;4.53;;;2.65;;
76131;SDS011;64877;50.994;13.650;2023-10-13T05:40:52;4.47;;;2.85;;
76131;SDS011;64877;50.994;13.650;2023-10-13T05:43:37;3.65;;;2.13;;
76131;SDS011;64877;50.994;13.650;2023-10-13T05:46:21;4.63;;;2.33;;
76131;SDS011;64877;50.994;13.650;2023-10-13T05:48:55;4.78;;;2.05;;
76131;SDS011;64877;50.994;13.650;2023-10-13T05:51:23;6.35;;;2.22;;
76131;SDS011;64877;50.994;13.650;2023-10-13T05:53:58;5.45;;;2.08;;
76131;SDS011;64877;50.994;13.650;2023-10-13T05:56:39;3.50;;;1.98;;
76131;SDS011;64877;50.994;13.650;2023-10-13T05:59:23;4.65;;;2.30;;
76131;SDS011;64877;50.994;13.650;2023-10-13T06:02:08;3.13;;;2.00;;
76131;SDS011;64877;50.994;13.650;2023-10-13T06:04:52;3.63;;;2.00;;
76131;SDS011;64877;50.994;13.650;2023-10-13T06:07:35;8.10;;;2.40;;
76131;SDS011;64877;50.994;13.650;2023-10-13T06:10:19;8.85;;;3.13;;
76131;SDS011;64877;50.994;13.650;2023-10-13T06:13:03;6.75;;;2.33;;
76131;SDS011;64877;50.994;13.650;2023-10-13T06:15:47;5.53;;;2.22;;
76131;SDS011;64877;50.994;13.650;2023-10-13T06:18:31;4.72;;;2.33;;
76131;SDS011;64877;50.994;13.650;2023-10-13T06:21:15;5.05;;;2.20;;
76131;SDS011;64877;50.994;13.650;2023-10-13T06:24:00;4.22;;;2.35;;
76131;SDS011;64877;50.994;13.650;2023-10-13T06:26:43;5.10;;;2.30;;
76131;SDS011;64877;50.994;13.650;2023-10-13T06:29:27;4.63;;;2.20;;
76131;SDS011;64877;50.994;13.650;2023-10-13T06:31:53;4.70;;;2.20;;
76131;SDS011;64877;50.994;13.650;2023-10-13T06:34:22;7.00;;;2.13;;
76131;SDS011;64877;50.994;13.650;2023-10-13T06:37:03;5.50;;;2.08;;
76131;SDS011;64877;50.994;13.650;2023-10-13T06:39:47;4.85;;;2.10;;
76131;SDS011;64877;50.994;13.650;2023-10-13T06:42:13;5.07;;;2.15;;
76131;SDS011;64877;50.994;13.650;2023-10-13T06:44:40;4.20;;;2.00;;
76131;SDS011;64877;50.994;13.650;2023-10-13T06:47:10;6.38;;;2.28;;
76131;SDS011;64877;50.994;13.650;2023-10-13T06:49:36;4.63;;;2.15;;
76131;SDS011;64877;50.994;13.650;2023-10-13T06:52:07;3.28;;;1.90;;
76131;SDS011;64877;50.994;13.650;2023-10-13T06:54:32;4.57;;;1.70;;
76131;SDS011;64877;50.994;13.650;2023-10-13T06:57:02;2.78;;;1.60;;
76131;SDS011;64877;50.994;13.650;2023-10-13T06:59:31;4.15;;;1.90;;
76131;SDS011;64877;50.994;13.650;2023-10-13T07:02:00;3.72;;;1.52;;
76131;SDS011;64877;50.994;13.650;2023-10-13T07:04:34;4.05;;;2.00;;
76131;SDS011;64877;50.994;13.650;2023-10-13T07:07:04;2.75;;;1.67;;
76131;SDS011;64877;50.994;13.650;2023-10-13T07:09:31;3.95;;;1.73;;
76131;SDS011;64877;50.994;13.650;2023-10-13T07:12:00;2.72;;;1.50;;
76131;SDS011;64877;50.994;13.650;2023-10-13T07:14:27;2.95;;;1.38;;
76131;SDS011;64877;50.994;13.650;2023-10-13T07:17:04;5.07;;;1.30;;
76131;SDS011;64877;50.994;13.650;2023-10-13T07:19:32;3.90;;;1.80;;
76131;SDS011;64877;50.994;13.650;2023-10-13T07:21:59;4.40;;;1.45;;
76131;SDS011;64877;50.994;13.650;2023-10-13T07:24:44;2.40;;;1.42;;
76131;SDS011;64877;50.994;13.650;2023-10-13T07:29:53;5.45;;;1.30;;
76131;SDS011;64877;50.994;13.650;2023-10-13T07:32:38;4.40;;;1.35;;
76131;SDS011;64877;50.994;13.650;2023-10-13T07:35:10;3.58;;;1.60;;
76131;SDS011;64877;50.994;13.650;2023-10-13T07:37:45;3.08;;;1.40;;
76131;SDS011;64877;50.994;13.650;2023-10-13T07:40:17;4.68;;;1.60;;
76131;SDS011;64877;50.994;13.650;2023-10-13T07:42:55;4.45;;;1.42;;
76131;SDS011;64877;50.994;13.650;2023-10-13T07:45:35;4.00;;;1.05;;
76131;SDS011;64877;50.994;13.650;2023-10-13T07:48:05;4.03;;;1.50;;
76131;SDS011;64877;50.994;13.650;2023-10-13T07:50:40;3.10;;;1.50;;
76131;SDS011;64877;50.994;13.650;2023-10-13T07:53:06;4.80;;;1.45;;
76131;SDS011;64877;50.994;13.650;2023-10-13T07:55:46;5.05;;;2.20;;
76131;SDS011;64877;50.994;13.650;2023-10-13T07:58:12;3.28;;;1.88;;
76131;SDS011;64877;50.994;13.650;2023-10-13T08:00:39;3.05;;;1.50;;
76131;SDS011;64877;50.994;13.650;2023-10-13T08:03:11;2.45;;;1.30;;
76131;SDS011;64877;50.994;13.650;2023-10-13T08:05:39;4.47;;;1.33;;
76131;SDS011;64877;50.994;13.650;2023-10-13T08:08:21;3.50;;;1.77;;
76131;SDS011;64877;50.994;13.650;2023-10-13T08:10:50;4.38;;;1.80;;
76131;SDS011;64877;50.994;13.650;2023-10-13T08:13:22;4.38;;;1.70;;
76131;SDS011;64877;50.994;13.650;2023-10-13T08:15:47;3.38;;;1.30;;
76131;SDS011;64877;50.994;13.650;2023-10-13T08:18:13;4.57;;;1.90;;
76131;SDS011;64877;50.994;13.650;2023-10-13T08:20:56;3.35;;;1.48;;
76131;SDS011;64877;50.994;13.650;2023-10-13T08:23:31;2.28;;;1.17;;
76131;SDS011;64877;50.994;13.650;2023-10-13T08:26:16;2.17;;;1.13;;
76131;SDS011;64877;50.994;13.650;2023-10-13T08:29:10;4.70;;;1.90;;
76131;SDS011;64877;50.994;13.650;2023-10-13T08:31:49;3.20;;;1.50;;
76131;SDS011;64877;50.994;13.650;2023-10-13T08:37:06;2.63;;;1.33;;
76131;SDS011;64877;50.994;13.650;2023-10-13T08:39:54;3.45;;;1.67;;
76131;SDS011;64877;50.994;13.650;2023-10-13T08:42:29;3.92;;;1.30;;
76131;SDS011;64877;50.994;13.650;2023-10-13T08:45:19;2.78;;;1.33;;
76131;SDS011;64877;50.994;13.650;2023-10-13T08:48:06;3.00;;;1.60;;
76131;SDS011;64877;50.994;13.650;2023-10-13T08:50:44;4.32;;;1.70;;
76131;SDS011;64877;50.994;13.650;2023-10-13T08:58:36;6.03;;;1.90;;
76131;SDS011;64877;50.994;13.650;2023-10-13T09:01:21;5.38;;;1.88;;
76131;SDS011;64877;50.994;13.650;2023-10-13T09:04:07;3.60;;;1.60;;
76131;SDS011;64877;50.994;13.650;2023-10-13T09:06:53;5.15;;;1.60;;
76131;SDS011;64877;50.994;13.650;2023-10-13T09:09:28;4.18;;;1.70;;
76131;SDS011;64877;50.994;13.650;2023-10-13T09:12:13;3.35;;;1.58;;
76131;SDS011;64877;50.994;13.650;2023-10-13T09:14:40;3.45;;;1.48;;
76131;SDS011;64877;50.994;13.650;2023-10-13T09:17:11;3.13;;;1.45;;
76131;SDS011;64877;50.994;13.650;2023-10-13T09:19:44;3.65;;;1.70;;
76131;SDS011;64877;50.994;13.650;2023-10-13T09:22:22;3.00;;;1.70;;
76131;SDS011;64877;50.994;13.650;2023-10-13T09:25:03;4.78;;;1.90;;
76131;SDS011;64877;50.994;13.650;2023-10-13T09:27:38;3.15;;;1.55;;
76131;SDS011;64877;50.994;13.650;2023-10-13T09:30:04;4.22;;;1.90;;
76131;SDS011;64877;50.994;13.650;2023-10-13T09:32:33;4.70;;;2.10;;
76131;SDS011;64877;50.994;13.650;2023-10-13T09:35:11;3.47;;;1.60;;
76131;SDS011;64877;50.994;13.650;2023-10-13T09:37:44;4.45;;;1.85;;
76131;SDS011;64877;50.994;13.650;2023-10-13T09:40:16;3.58;;;1.60;;
76131;SDS011;64877;50.994;13.650;2023-10-13T09:43:12;6.25;;;2.00;;
76131;SDS011;64877;50.994;13.650;2023-10-13T09:45:43;4.35;;;1.88;;
76131;SDS011;64877;50.994;13.650;2023-10-13T09:48:34;5.65;;;2.05;;
76131;SDS011;64877;50.994;13.650;2023-10-13T09:51:02;8.43;;;2.10;;
76131;SDS011;64877;50.994;13.650;2023-10-13T09:53:34;9.13;;;1.92;;
76131;SDS011;64877;50.994;13.650;2023-10-13T09:56:07;5.47;;;1.90;;
76131;SDS011;64877;50.994;13.650;2023-10-13T09:58:55;4.00;;;1.85;;
76131;SDS011;64877;50.994;13.650;2023-10-13T10:01:33;6.85;;;2.20;;
76131;SDS011;64877;50.994;13.650;2023-10-13T10:04:09;5.28;;;1.70;;
76131;SDS011;64877;50.994;13.650;2023-10-13T10:06:36;7.70;;;1.98;;
76131;SDS011;64877;50.994;13.650;2023-10-13T10:09:09;7.38;;;1.80;;
76131;SDS011;64877;50.994;13.650;2023-10-13T10:12:01;5.43;;;2.30;;
76131;SDS011;64877;50.994;13.650;2023-10-13T10:15:04;6.20;;;2.60;;
76131;SDS011;64877;50.994;13.650;2023-10-13T10:17:38;6.93;;;2.67;;
76131;SDS011;64877;50.994;13.650;2023-10-13T10:20:06;6.03;;;2.03;;
76131;SDS011;64877;50.994;13.650;2023-10-13T10:22:57;5.85;;;1.85;;
76131;SDS011;64877;50.994;13.650;2023-10-13T10:25:30;8.38;;;2.40;;
76131;SDS011;64877;50.994;13.650;2023-10-13T10:28:06;5.20;;;2.30;;
76131;SDS011;64877;50.994;13.650;2023-10-13T10:30:33;9.80;;;2.30;;
76131;SDS011;64877;50.994;13.650;2023-10-13T10:33:07;6.03;;;2.30;;
76131;SDS011;64877;50.994;13.650;2023-10-13T10:35:44;7.43;;;2.60;;
76131;SDS011;64877;50.994;13.650;2023-10-13T10:40:56;5.90;;;2.67;;
76131;SDS011;64877;50.994;13.650;2023-10-13T10:46:13;8.32;;;2.50;;
76131;SDS011;64877;50.994;13.650;2023-10-13T10:48:41;7.43;;;2.00;;
76131;SDS011;64877;50.994;13.650;2023-10-13T10:51:10;8.98;;;2.65;;
76131;SDS011;64877;50.994;13.650;2023-10-13T10:54:00;6.25;;;1.95;;
76131;SDS011;64877;50.994;13.650;2023-10-13T10:56:55;7.35;;;2.60;;
76131;SDS011;64877;50.994;13.650;2023-10-13T10:59:21;6.40;;;2.35;;
76131;SDS011;64877;50.994;13.650;2023-10-13T11:01:50;6.05;;;3.03;;
76131;SDS011;64877;50.994;13.650;2023-10-13T11:04:18;8.02;;;2.60;;
76131;SDS011;64877;50.994;13.650;2023-10-13T11:06:48;13.55;;;2.60;;
76131;SDS011;64877;50.994;13.650;2023-10-13T11:09:30;8.18;;;2.47;;
76131;SDS011;64877;50.994;13.650;2023-10-13T11:14:31;9.25;;;2.47;;
76131;SDS011;64877;50.994;13.650;2023-10-13T11:16:57;8.27;;;2.47;;
76131;SDS011;64877;50.994;13.650;2023-10-13T11:19:34;8.32;;;2.50;;
76131;SDS011;64877;50.994;13.650;2023-10-13T11:22:09;7.75;;;2.72;;
76131;SDS011;64877;50.994;13.650;2023-10-13T11:24:57;7.43;;;2.70;;
76131;SDS011;64877;50.994;13.650;2023-10-13T11:27:34;10.45;;;2.50;;
76131;SDS011;64877;50.994;13.650;2023-10-13T11:30:19;9.20;;;2.65;;
76131;SDS011;64877;50.994;13.650;2023-10-13T11:33:05;11.13;;;2.83;;
76131;SDS011;64877;50.994;13.650;2023-10-13T11:35:35;9.38;;;2.53;;
76131;SDS011;64877;50.994;13.650;2023-10-13T11:40:53;9.15;;;2.45;;
76131;SDS011;64877;50.994;13.650;2023-10-13T11:46:15;9.43;;;2.47;;
76131;SDS011;64877;50.994;13.650;2023-10-13T11:49:05;7.60;;;3.25;;
76131;SDS011;64877;50.994;13.650;2023-10-13T11:51:47;9.80;;;3.03;;
76131;SDS011;64877;50.994;13.650;2023-10-13T11:54:15;11.82;;;2.90;;
76131;SDS011;64877;50.994;13.650;2023-10-13T11:56:43;13.07;;;3.65;;
76131;SDS011;64877;50.994;13.650;2023-10-13T11:59:09;10.02;;;3.30;;
76131;SDS011;64877;50.994;13.650;2023-10-13T12:01:49;10.25;;;2.83;;
76131;SDS011;64877;50.994;13.650;2023-10-13T12:04:34;12.13;;;2.92;;
76131;SDS011;64877;50.994;13.650;2023-10-13T12:07:03;11.32;;;2.90;;
76131;SDS011;64877;50.994;13.650;2023-10-13T12:09:43;10.23;;;3.08;;
76131;SDS011;64877;50.994;13.650;2023-10-13T12:12:24;8.70;;;3.05;;
76131;SDS011;64877;50.994;13.650;2023-10-13T12:14:51;11.90;;;2.83;;
76131;SDS011;64877;50.994;13.650;2023-10-13T12:17:21;18.90;;;2.67;;
76131;SDS011;64877;50.994;13.650;2023-10-13T12:20:05;13.68;;;3.60;;
76131;SDS011;64877;50.994;13.650;2023-10-13T12:22:34;12.38;;;2.97;;
76131;SDS011;64877;50.994;13.650;2023-10-13T12:25:01;11.80;;;2.88;;
76131;SDS011;64877;50.994;13.650;2023-10-13T12:27:44;10.85;;;2.97;;
76131;SDS011;64877;50.994;13.650;2023-10-13T12:30:15;12.05;;;2.85;;
76131;SDS011;64877;50.994;13.650;2023-10-13T12:32:48;9.65;;;2.78;;
76131;SDS011;64877;50.994;13.650;2023-10-13T12:35:31;8.02;;;2.60;;
76131;SDS011;64877;50.994;13.650;2023-10-13T12:38:03;9.43;;;3.22;;
76131;SDS011;64877;50.994;13.650;2023-10-13T12:40:33;7.53;;;2.95;;
76131;SDS011;64877;50.994;13.650;2023-10-13T12:43:17;15.05;;;2.60;;
76131;SDS011;64877;50.994;13.650;2023-10-13T12:46:01;10.15;;;2.63;;
76131;SDS011;64877;50.994;13.650;2023-10-13T12:48:45;11.55;;;3.03;;
76131;SDS011;64877;50.994;13.650;2023-10-13T12:51:39;10.25;;;3.80;;
76131;SDS011;64877;50.994;13.650;2023-10-13T12:54:05;6.20;;;2.33;;
76131;SDS011;64877;50.994;13.650;2023-10-13T12:56:31;13.85;;;2.58;;
76131;SDS011;64877;50.994;13.650;2023-10-13T12:58:57;6.32;;;2.72;;
76131;SDS011;64877;50.994;13.650;2023-10-13T13:01:26;7.35;;;2.65;;
76131;SDS011;64877;50.994;13.650;2023-10-13T13:03:57;7.38;;;2.88;;
76131;SDS011;64877;50.994;13.650;2023-10-13T13:06:24;12.40;;;4.00;;
76131;SDS011;64877;50.994;13.650;2023-10-13T13:11:17;10.25;;;2.90;;
76131;SDS011;64877;50.994;13.650;2023-10-13T13:13:42;9.93;;;2.78;;
76131;SDS011;64877;50.994;13.650;2023-10-13T13:16:08;6.63;;;2.53;;
76131;SDS011;64877;50.994;13.650;2023-10-13T13:18:33;7.15;;;2.67;;
76131;SDS011;64877;50.994;13.650;2023-10-13T13:20:59;9.48;;;2.95;;
76131;SDS011;64877;50.994;13.650;2023-10-13T13:23:27;9.65;;;3.20;;
76131;SDS011;64877;50.994;13.650;2023-10-13T13:25:53;8.10;;;2.80;;
76131;SDS011;64877;50.994;13.650;2023-10-13T13:28:19;11.57;;;2.92;;
76131;SDS011;64877;50.994;13.650;2023-10-13T13:30:44;13.65;;;3.97;;
76131;SDS011;64877;50.994;13.650;2023-10-13T13:33:11;6.72;;;2.53;;
76131;SDS011;64877;50.994;13.650;2023-10-13T13:35:37;11.30;;;3.08;;
76131;SDS011;64877;50.994;13.650;2023-10-13T13:38:08;9.23;;;2.67;;
76131;SDS011;64877;50.994;13.650;2023-10-13T13:40:55;7.13;;;3.15;;
76131;SDS011;64877;50.994;13.650;2023-10-13T13:43:21;7.07;;;2.78;;
76131;SDS011;64877;50.994;13.650;2023-10-13T13:46:05;10.45;;;2.90;;
76131;SDS011;64877;50.994;13.650;2023-10-13T13:48:37;10.20;;;2.75;;
76131;SDS011;64877;50.994;13.650;2023-10-13T13:51:05;11.38;;;3.38;;
76131;SDS011;64877;50.994;13.650;2023-10-13T13:53:31;8.82;;;3.40;;
76131;SDS011;64877;50.994;13.650;2023-10-13T13:56:03;8.70;;;2.60;;
76131;SDS011;64877;50.994;13.650;2023-10-13T13:58:29;8.57;;;3.08;;
76131;SDS011;64877;50.994;13.650;2023-10-13T14:01:02;10.27;;;2.83;;
76131;SDS011;64877;50.994;13.650;2023-10-13T14:03:41;10.10;;;2.83;;
76131;SDS011;64877;50.994;13.650;2023-10-13T14:06:16;11.00;;;2.70;;
76131;SDS011;64877;50.994;13.650;2023-10-13T14:08:52;10.30;;;3.33;;
76131;SDS011;64877;50.994;13.650;2023-10-13T14:11:22;6.65;;;2.80;;
76131;SDS011;64877;50.994;13.650;2023-10-13T14:14:07;10.70;;;3.25;;
76131;SDS011;64877;50.994;13.650;2023-10-13T14:17:00;11.70;;;4.03;;
76131;SDS011;64877;50.994;13.650;2023-10-13T14:19:32;11.73;;;4.25;;
76131;SDS011;64877;50.994;13.650;2023-10-13T14:21:58;8.43;;;2.70;;
76131;SDS011;64877;50.994;13.650;2023-10-13T14:24:25;8.52;;;2.95;;
76131;SDS011;64877;50.994;13.650;2023-10-13T14:29:32;9.90;;;3.60;;
76131;SDS011;64877;50.994;13.650;2023-10-13T14:31:58;9.20;;;3.63;;
76131;SDS011;64877;50.994;13.650;2023-10-13T14:34:24;9.10;;;3.10;;
76131;SDS011;64877;50.994;13.650;2023-10-13T14:36:51;12.90;;;3.22;;
76131;SDS011;64877;50.994;13.650;2023-10-13T14:39:19;13.05;;;3.80;;
76131;SDS011;64877;50.994;13.650;2023-10-13T14:41:46;9.93;;;3.50;;
76131;SDS011;64877;50.994;13.650;2023-10-13T14:44:13;15.23;;;4.50;;
76131;SDS011;64877;50.994;13.650;2023-10-13T14:46:39;6.50;;;3.30;;
76131;SDS011;64877;50.994;13.650;2023-10-13T14:49:05;15.05;;;3.80;;
76131;SDS011;64877;50.994;13.650;2023-10-13T14:51:31;8.55;;;3.03;;
76131;SDS011;64877;50.994;13.650;2023-10-13T14:53:57;10.85;;;3.85;;
76131;SDS011;64877;50.994;13.650;2023-10-13T14:56:29;16.77;;;3.20;;
76131;SDS011;64877;50.994;13.650;2023-10-13T14:58:54;10.45;;;3.17;;
76131;SDS011;64877;50.994;13.650;2023-10-13T15:01:21;22.67;;;3.90;;
76131;SDS011;64877;50.994;13.650;2023-10-13T15:03:52;10.60;;;2.72;;
76131;SDS011;64877;50.994;13.650;2023-10-13T15:06:23;9.50;;;3.60;;
76131;SDS011;64877;50.994;13.650;2023-10-13T15:08:50;7.55;;;3.13;;
76131;SDS011;64877;50.994;13.650;2023-10-13T15:11:19;9.77;;;2.90;;
76131;SDS011;64877;50.994;13.650;2023-10-13T15:14:04;14.57;;;3.30;;
76131;SDS011;64877;50.994;13.650;2023-10-13T15:16:33;8.00;;;3.25;;
76131;SDS011;64877;50.994;13.650;2023-10-13T15:18:59;10.20;;;2.83;;
76131;SDS011;64877;50.994;13.650;2023-10-13T15:21:25;8.40;;;3.15;;
76131;SDS011;64877;50.994;13.650;2023-10-13T15:23:54;12.20;;;3.75;;
76131;SDS011;64877;50.994;13.650;2023-10-13T15:26:25;10.73;;;3.65;;
76131;SDS011;64877;50.994;13.650;2023-10-13T15:28:50;10.00;;;2.95;;
76131;SDS011;64877;50.994;13.650;2023-10-13T15:31:20;6.28;;;2.60;;
76131;SDS011;64877;50.994;13.650;2023-10-13T15:33:58;6.35;;;2.95;;
76131;SDS011;64877;50.994;13.650;2023-10-13T15:36:24;7.22;;;3.10;;
76131;SDS011;64877;50.994;13.650;2023-10-13T15:38:51;7.63;;;2.80;;
76131;SDS011;64877;50.994;13.650;2023-10-13T15:41:25;6.80;;;2.90;;
76131;SDS011;64877;50.994;13.650;2023-10-13T15:43:52;7.53;;;2.92;;
76131;SDS011;64877;50.994;13.650;2023-10-13T15:46:19;9.18;;;2.97;;
76131;SDS011;64877;50.994;13.650;2023-10-13T15:48:49;8.35;;;3.80;;
76131;SDS011;64877;50.994;13.650;2023-10-13T15:51:15;9.95;;;3.55;;
76131;SDS011;64877;50.994;13.650;2023-10-13T15:53:42;9.32;;;2.78;;